createdAt,value
2018-05-12T00:00:36.464Z,0.00
2018-05-12T00:01:36.457Z,0.00
2018-05-12T00:02:36.447Z,0.00
2018-05-12T00:03:36.455Z,0.00
2018-05-12T00:04:36.444Z,0.00
2018-05-12T00:05:36.436Z,0.00
2018-05-12T00:06:36.429Z,0.00
2018-05-12T00:07:36.424Z,0.00
2018-05-12T00:08:36.416Z,0.00
2018-05-12T00:09:36.411Z,0.00
2018-05-12T00:10:36.407Z,0.00
2018-05-12T00:11:36.408Z,0.00
2018-05-12T00:12:36.401Z,0.00
2018-05-12T00:13:36.400Z,0.00
2018-05-12T00:14:36.389Z,0.00
2018-05-12T00:15:36.382Z,0.00
2018-05-12T00:16:36.388Z,0.00
2018-05-12T00:17:36.363Z,0.00
2018-05-12T00:18:36.382Z,0.00
2018-05-12T00:19:36.357Z,0.00
2018-05-12T00:20:36.348Z,0.00
2018-05-12T00:21:36.346Z,0.00
2018-05-12T00:22:36.344Z,0.00
2018-05-12T00:23:36.332Z,0.00
2018-05-12T00:24:36.339Z,0.00
2018-05-12T00:25:36.316Z,0.00
2018-05-12T00:26:36.314Z,0.00
2018-05-12T00:27:36.305Z,0.00
2018-05-12T00:28:36.305Z,0.00
2018-05-12T00:29:36.298Z,0.00
2018-05-12T00:30:36.295Z,0.00
2018-05-12T00:31:36.285Z,0.00
2018-05-12T00:32:36.284Z,0.00
2018-05-12T00:33:36.274Z,0.00
2018-05-12T00:34:36.271Z,0.00
2018-05-12T00:35:36.263Z,0.00
2018-05-12T00:36:36.258Z,0.00
2018-05-12T00:37:36.255Z,0.00
2018-05-12T00:38:36.250Z,0.00
2018-05-12T00:39:36.237Z,0.00
2018-05-12T00:40:36.247Z,0.00
2018-05-12T00:41:36.233Z,0.00
2018-05-12T00:42:36.233Z,0.00
2018-05-12T00:43:36.216Z,0.00
2018-05-12T00:44:36.212Z,0.00
2018-05-12T00:45:36.204Z,0.00
2018-05-12T00:46:36.200Z,0.00
2018-05-12T00:47:36.197Z,0.00
2018-05-12T00:48:36.197Z,0.00
2018-05-12T00:49:36.193Z,0.00
2018-05-12T00:50:36.187Z,0.00
2018-05-12T00:51:36.172Z,0.00
2018-05-12T00:52:36.165Z,0.00
2018-05-12T00:53:36.179Z,0.00
2018-05-12T00:54:36.166Z,0.00
2018-05-12T00:55:36.161Z,0.00
2018-05-12T00:56:36.143Z,0.00
2018-05-12T00:57:36.142Z,0.00
2018-05-12T00:58:36.136Z,0.00
2018-05-12T00:59:36.129Z,0.00
2018-05-12T01:00:36.120Z,0.00
2018-05-12T01:01:36.117Z,0.00
2018-05-12T01:02:36.111Z,0.00
2018-05-12T01:03:36.110Z,0.00
2018-05-12T01:04:36.101Z,0.00
2018-05-12T01:05:36.826Z,0.00
2018-05-12T01:06:36.089Z,0.00
2018-05-12T01:07:36.080Z,0.00
2018-05-12T01:08:36.075Z,0.00
2018-05-12T01:09:36.072Z,0.00
2018-05-12T01:10:36.066Z,0.00
2018-05-12T01:11:36.060Z,0.00
2018-05-12T01:12:36.824Z,0.00
2018-05-12T01:13:36.072Z,0.00
2018-05-12T01:14:36.049Z,0.00
2018-05-12T01:15:36.040Z,0.00
2018-05-12T01:16:36.032Z,0.00
2018-05-12T01:17:36.025Z,0.00
2018-05-12T01:18:36.018Z,0.00
2018-05-12T01:19:36.016Z,0.00
2018-05-12T01:20:36.005Z,0.00
2018-05-12T01:21:36.827Z,0.00
2018-05-12T01:22:35.994Z,0.00
2018-05-12T01:23:36.003Z,0.00
2018-05-12T01:24:35.987Z,0.00
2018-05-12T01:25:35.978Z,0.00
2018-05-12T01:26:35.971Z,0.00
2018-05-12T01:27:35.970Z,0.00
2018-05-12T01:28:35.968Z,0.00
2018-05-12T01:29:35.958Z,0.00
2018-05-12T01:30:35.954Z,0.00
2018-05-12T01:31:35.947Z,0.00
2018-05-12T01:32:35.943Z,0.00
2018-05-12T01:33:35.944Z,0.00
2018-05-12T01:34:35.930Z,0.00
2018-05-12T01:35:35.925Z,0.00
2018-05-12T01:36:35.920Z,0.00
2018-05-12T01:37:35.913Z,0.00
2018-05-12T01:38:35.909Z,0.00
2018-05-12T01:39:35.902Z,0.00
2018-05-12T01:40:35.930Z,0.00
2018-05-12T01:41:35.894Z,0.00
2018-05-12T01:42:35.883Z,0.00
2018-05-12T01:43:35.881Z,0.00
2018-05-12T01:44:36.835Z,0.00
2018-05-12T01:45:35.874Z,0.00
2018-05-12T01:46:35.863Z,0.00
2018-05-12T01:47:35.856Z,0.00
2018-05-12T01:48:35.852Z,0.00
2018-05-12T01:49:35.847Z,0.00
2018-05-12T01:50:35.838Z,0.00
2018-05-12T01:51:35.839Z,0.00
2018-05-12T01:52:35.832Z,0.00
2018-05-12T01:53:35.820Z,0.00
2018-05-12T01:54:35.817Z,0.00
2018-05-12T01:55:35.816Z,0.00
2018-05-12T01:56:35.806Z,0.00
2018-05-12T01:57:35.801Z,0.00
2018-05-12T01:58:35.810Z,0.00
2018-05-12T01:59:35.788Z,0.00
2018-05-12T02:00:35.786Z,0.00
2018-05-12T02:01:35.774Z,0.00
2018-05-12T02:02:35.769Z,0.00
2018-05-12T02:03:35.764Z,0.00
2018-05-12T02:04:35.772Z,0.00
2018-05-12T02:05:35.757Z,0.00
2018-05-12T02:06:35.746Z,0.00
2018-05-12T02:07:35.741Z,0.00
2018-05-12T02:08:35.739Z,0.00
2018-05-12T02:09:35.732Z,0.00
2018-05-12T02:10:35.728Z,0.00
2018-05-12T02:11:35.722Z,0.00
2018-05-12T02:12:35.718Z,0.00
2018-05-12T02:13:35.711Z,0.00
2018-05-12T02:14:35.704Z,0.00
2018-05-12T02:15:35.698Z,0.00
2018-05-12T02:16:36.343Z,0.00
2018-05-12T02:17:35.693Z,0.00
2018-05-12T02:18:35.680Z,0.00
2018-05-12T02:19:35.676Z,0.00
2018-05-12T02:20:35.668Z,0.00
2018-05-12T02:21:35.662Z,0.00
2018-05-12T02:22:35.656Z,0.00
2018-05-12T02:23:35.652Z,0.00
2018-05-12T02:24:35.649Z,0.00
2018-05-12T02:25:35.649Z,0.00
2018-05-12T02:26:35.637Z,0.00
2018-05-12T02:27:35.633Z,0.00
2018-05-12T02:28:35.633Z,0.00
2018-05-12T02:29:35.618Z,0.00
2018-05-12T02:30:35.613Z,0.00
2018-05-12T02:31:35.632Z,0.00
2018-05-12T02:32:35.609Z,0.00
2018-05-12T02:33:35.603Z,0.00
2018-05-12T02:34:35.590Z,0.00
2018-05-12T02:35:35.587Z,0.00
2018-05-12T02:36:35.596Z,0.00
2018-05-12T02:37:36.349Z,0.00
2018-05-12T02:38:35.569Z,0.00
2018-05-12T02:39:35.571Z,0.00
2018-05-12T02:40:35.562Z,0.00
2018-05-12T02:41:35.557Z,0.00
2018-05-12T02:42:35.548Z,0.00
2018-05-12T02:43:35.546Z,0.00
2018-05-12T02:44:35.540Z,0.00
2018-05-12T02:45:35.539Z,0.00
2018-05-12T02:46:35.533Z,0.00
2018-05-12T02:47:35.528Z,0.00
2018-05-12T02:48:35.514Z,0.00
2018-05-12T02:49:35.520Z,0.00
2018-05-12T02:50:35.502Z,0.00
2018-05-12T02:51:35.502Z,0.00
2018-05-12T02:52:35.490Z,0.00
2018-05-12T02:53:35.498Z,0.00
2018-05-12T02:54:35.484Z,0.00
2018-05-12T02:55:35.569Z,0.00
2018-05-12T02:56:35.468Z,0.00
2018-05-12T02:57:35.465Z,0.00
2018-05-12T02:58:35.463Z,0.00
2018-05-12T02:59:35.457Z,0.00
2018-05-12T03:00:35.452Z,0.00
2018-05-12T03:01:35.445Z,0.00
2018-05-12T03:02:35.436Z,0.00
2018-05-12T03:03:35.427Z,0.00
2018-05-12T03:04:35.423Z,4.00
2018-05-12T03:05:35.425Z,4.00
2018-05-12T03:06:35.420Z,4.00
2018-05-12T03:07:35.409Z,0.00
2018-05-12T03:08:35.411Z,4.00
2018-05-12T03:09:35.398Z,4.00
2018-05-12T03:10:35.390Z,4.00
2018-05-12T03:11:35.390Z,8.00
2018-05-12T03:12:35.382Z,8.00
2018-05-12T03:13:35.378Z,8.00
2018-05-12T03:14:35.373Z,8.00
2018-05-12T03:15:35.369Z,12.00
2018-05-12T03:16:35.355Z,12.00
2018-05-12T03:17:35.349Z,12.00
2018-05-12T03:18:35.350Z,16.00
2018-05-12T03:19:35.343Z,20.00
2018-05-12T03:20:35.336Z,20.00
2018-05-12T03:21:35.329Z,24.00
2018-05-12T03:22:35.326Z,24.00
2018-05-12T03:23:35.314Z,32.00
2018-05-12T03:24:35.317Z,36.00
2018-05-12T03:25:35.306Z,40.00
2018-05-12T03:26:35.315Z,44.00
2018-05-12T03:27:35.294Z,48.00
2018-05-12T03:28:35.293Z,60.00
2018-05-12T03:29:35.286Z,68.00
2018-05-12T03:30:35.277Z,76.00
2018-05-12T03:31:35.268Z,84.00
2018-05-12T03:32:35.268Z,92.00
2018-05-12T03:33:35.260Z,104.00
2018-05-12T03:34:35.256Z,116.00
2018-05-12T03:35:35.246Z,128.00
2018-05-12T03:36:35.250Z,140.00
2018-05-12T03:37:35.231Z,156.00
2018-05-12T03:38:35.230Z,168.00
2018-05-12T03:39:35.221Z,188.00
2018-05-12T03:40:35.220Z,204.00
2018-05-12T03:41:35.217Z,224.00
2018-05-12T03:42:35.210Z,240.00
2018-05-12T03:43:35.193Z,256.00
2018-05-12T03:44:35.200Z,276.00
2018-05-12T03:45:35.181Z,296.00
2018-05-12T03:46:35.175Z,320.00
2018-05-12T03:47:35.171Z,344.00
2018-05-12T03:48:35.164Z,364.00
2018-05-12T03:49:35.162Z,388.00
2018-05-12T03:50:35.161Z,412.00
2018-05-12T03:51:35.154Z,436.00
2018-05-12T03:52:35.141Z,468.00
2018-05-12T03:53:35.136Z,492.00
2018-05-12T03:54:35.128Z,524.00
2018-05-12T03:55:35.121Z,552.00
2018-05-12T03:56:35.126Z,584.00
2018-05-12T03:57:35.122Z,616.00
2018-05-12T03:58:35.109Z,648.00
2018-05-12T03:59:35.108Z,684.00
2018-05-12T04:00:35.102Z,720.00
2018-05-12T04:01:35.088Z,752.00
2018-05-12T04:02:35.078Z,788.00
2018-05-12T04:03:35.075Z,824.00
2018-05-12T04:04:35.066Z,864.00
2018-05-12T04:05:35.067Z,900.00
2018-05-12T04:06:35.060Z,940.00
2018-05-12T04:07:35.055Z,980.00
2018-05-12T04:08:35.087Z,1016.00
2018-05-12T04:09:35.033Z,1060.00
2018-05-12T04:10:35.029Z,1104.00
2018-05-12T04:11:35.026Z,1144.00
2018-05-12T04:12:35.013Z,1192.00
2018-05-12T04:13:35.008Z,1232.00
2018-05-12T04:14:35.013Z,1280.00
2018-05-12T04:15:35.002Z,1324.00
2018-05-12T04:16:34.993Z,1372.00
2018-05-12T04:17:34.989Z,1416.00
2018-05-12T04:18:34.979Z,1464.00
2018-05-12T04:19:34.984Z,1508.00
2018-05-12T04:20:34.967Z,1556.00
2018-05-12T04:21:34.961Z,1604.00
2018-05-12T04:22:34.955Z,1652.00
2018-05-12T04:23:34.953Z,1700.00
2018-05-12T04:24:34.941Z,1752.00
2018-05-12T04:25:34.932Z,1800.00
2018-05-12T04:26:34.928Z,1848.00
2018-05-12T04:27:34.943Z,1904.00
2018-05-12T04:28:34.922Z,1952.00
2018-05-12T04:29:34.917Z,2004.00
2018-05-12T04:30:34.905Z,2056.00
2018-05-12T04:31:34.896Z,2104.00
2018-05-12T04:32:34.894Z,2156.00
2018-05-12T04:33:34.892Z,2212.00
2018-05-12T04:34:34.886Z,2260.00
2018-05-12T04:35:34.873Z,2312.00
2018-05-12T04:36:34.871Z,2364.00
2018-05-12T04:37:34.903Z,2412.00
2018-05-12T04:38:34.852Z,2460.00
2018-05-12T04:39:34.845Z,2508.00
2018-05-12T04:40:34.839Z,2548.00
2018-05-12T04:41:34.829Z,2588.00
2018-05-12T04:42:34.833Z,2628.00
2018-05-12T04:43:34.857Z,2680.00
2018-05-12T04:44:34.821Z,2732.00
2018-05-12T04:45:34.820Z,2784.00
2018-05-12T04:46:34.816Z,2840.00
2018-05-12T04:47:34.804Z,2972.00
2018-05-12T04:48:34.801Z,3180.00
2018-05-12T04:49:34.787Z,3416.00
2018-05-12T04:50:34.798Z,3604.00
2018-05-12T04:51:34.785Z,3748.00
2018-05-12T04:52:34.782Z,3896.00
2018-05-12T04:53:34.766Z,4064.00
2018-05-12T04:54:34.761Z,4152.00
2018-05-12T04:55:34.763Z,4268.00
2018-05-12T04:56:34.751Z,4372.00
2018-05-12T04:57:34.751Z,4500.00
2018-05-12T04:58:34.736Z,4632.00
2018-05-12T04:59:34.733Z,4828.00
2018-05-12T05:00:34.716Z,5052.00
2018-05-12T05:01:34.714Z,5156.00
2018-05-12T05:02:34.706Z,5236.00
2018-05-12T05:03:34.702Z,5352.00
2018-05-12T05:04:34.702Z,5580.00
2018-05-12T05:05:34.688Z,5736.00
2018-05-12T05:06:34.693Z,5828.00
2018-05-12T05:07:34.685Z,5852.00
2018-05-12T05:08:34.668Z,5984.00
2018-05-12T05:09:34.671Z,6064.00
2018-05-12T05:10:34.666Z,6176.00
2018-05-12T05:11:34.656Z,6260.00
2018-05-12T05:12:34.655Z,6308.00
2018-05-12T05:13:34.641Z,6388.00
2018-05-12T05:14:34.637Z,6576.00
2018-05-12T05:15:34.635Z,6788.00
2018-05-12T05:16:34.635Z,7020.00
2018-05-12T05:17:34.626Z,7092.00
2018-05-12T05:18:34.626Z,7128.00
2018-05-12T05:19:34.611Z,7204.00
2018-05-12T05:20:34.612Z,7272.00
2018-05-12T05:21:34.609Z,7144.00
2018-05-12T05:22:34.600Z,7484.00
2018-05-12T05:23:34.596Z,7768.00
2018-05-12T05:24:34.590Z,7848.00
2018-05-12T05:25:34.589Z,7804.00
2018-05-12T05:26:34.586Z,7988.00
2018-05-12T05:27:34.585Z,8056.00
2018-05-12T05:28:34.574Z,8044.00
2018-05-12T05:29:34.569Z,7944.00
2018-05-12T05:30:34.566Z,7964.00
2018-05-12T05:31:34.576Z,8208.00
2018-05-12T05:32:34.559Z,8612.00
2018-05-12T05:33:34.552Z,8988.00
2018-05-12T05:34:34.552Z,9356.00
2018-05-12T05:35:34.566Z,9488.00
2018-05-12T05:36:34.544Z,9788.00
2018-05-12T05:37:34.545Z,10008.00
2018-05-12T05:38:34.544Z,10168.00
2018-05-12T05:39:34.535Z,10384.00
2018-05-12T05:40:34.526Z,10540.00
2018-05-12T05:41:34.568Z,10576.00
2018-05-12T05:42:34.531Z,10696.00
2018-05-12T05:43:34.525Z,10740.00
2018-05-12T05:44:34.517Z,10576.00
2018-05-12T05:45:34.515Z,10692.00
2018-05-12T05:46:34.512Z,11212.00
2018-05-12T05:47:34.514Z,11580.00
2018-05-12T05:48:34.501Z,11636.00
2018-05-12T05:49:34.507Z,11708.00
2018-05-12T05:50:34.507Z,11792.00
2018-05-12T05:51:34.496Z,11236.00
2018-05-12T05:52:34.493Z,10920.00
2018-05-12T05:53:34.494Z,11252.00
2018-05-12T05:54:34.490Z,10348.00
2018-05-12T05:55:34.488Z,12088.00
2018-05-12T05:56:34.481Z,12312.00
2018-05-12T05:57:34.490Z,12508.00
2018-05-12T05:58:34.572Z,12792.00
2018-05-12T05:59:34.483Z,13252.00
2018-05-12T06:00:34.480Z,13092.00
2018-05-12T06:01:34.474Z,13368.00
2018-05-12T06:02:34.468Z,12988.00
2018-05-12T06:03:34.469Z,11328.00
2018-05-12T06:04:34.465Z,11164.00
2018-05-12T06:05:34.465Z,12084.00
2018-05-12T06:06:34.495Z,12852.00
2018-05-12T06:07:34.480Z,14380.00
2018-05-12T06:08:34.462Z,14656.00
2018-05-12T06:09:34.460Z,14128.00
2018-05-12T06:10:34.467Z,13788.00
2018-05-12T06:11:34.457Z,14264.00
2018-05-12T06:12:34.456Z,13272.00
2018-05-12T06:13:34.463Z,11932.00
2018-05-12T06:14:34.462Z,10708.00
2018-05-12T06:15:34.449Z,9196.00
2018-05-12T06:16:34.447Z,8448.00
2018-05-12T06:17:34.447Z,8300.00
2018-05-12T06:18:34.452Z,8308.00
2018-05-12T06:19:34.448Z,8508.00
2018-05-12T06:20:34.443Z,9280.00
2018-05-12T06:21:34.444Z,10672.00
2018-05-12T06:22:34.441Z,12788.00
2018-05-12T06:23:34.443Z,14456.00
2018-05-12T06:24:34.439Z,13416.00
2018-05-12T06:25:34.507Z,11856.00
2018-05-12T06:26:34.451Z,12596.00
2018-05-12T06:27:34.433Z,11740.00
2018-05-12T06:28:34.446Z,15552.00
2018-05-12T06:29:34.436Z,18176.00
2018-05-12T06:30:34.438Z,18784.00
2018-05-12T06:31:34.431Z,17952.00
2018-05-12T06:32:34.429Z,16800.00
2018-05-12T06:33:34.512Z,16224.00
2018-05-12T06:34:34.426Z,17088.00
2018-05-12T06:35:34.429Z,17728.00
2018-05-12T06:36:34.428Z,17856.00
2018-05-12T06:37:34.427Z,16896.00
2018-05-12T06:38:34.540Z,14264.00
2018-05-12T06:39:34.425Z,14684.00
2018-05-12T06:40:34.421Z,16800.00
2018-05-12T06:41:34.430Z,20128.00
2018-05-12T06:42:34.420Z,22656.00
2018-05-12T06:43:34.421Z,23872.00
2018-05-12T06:44:34.420Z,24384.00
2018-05-12T06:45:34.418Z,24512.00
2018-05-12T06:46:34.422Z,23616.00
2018-05-12T06:47:34.416Z,23392.00
2018-05-12T06:48:34.417Z,23776.00
2018-05-12T06:49:34.421Z,23232.00
2018-05-12T06:50:34.418Z,21184.00
2018-05-12T06:51:34.416Z,20960.00
2018-05-12T06:52:34.416Z,18144.00
2018-05-12T06:53:34.413Z,18336.00
2018-05-12T06:54:34.420Z,16160.00
2018-05-12T06:55:34.421Z,15300.00
2018-05-12T06:56:34.417Z,21440.00
2018-05-12T06:57:34.421Z,24960.00
2018-05-12T06:58:34.414Z,24640.00
2018-05-12T06:59:34.416Z,25632.00
2018-05-12T07:00:34.417Z,26624.00
2018-05-12T07:01:34.447Z,26816.00
2018-05-12T07:02:34.419Z,27136.00
2018-05-12T07:03:34.428Z,29504.00
2018-05-12T07:04:34.430Z,28320.00
2018-05-12T07:05:34.423Z,28288.00
2018-05-12T07:06:34.429Z,27776.00
2018-05-12T07:07:34.436Z,27584.00
2018-05-12T07:08:34.428Z,28672.00
2018-05-12T07:09:34.422Z,29408.00
2018-05-12T07:10:34.426Z,29472.00
2018-05-12T07:11:34.428Z,29504.00
2018-05-12T07:12:34.431Z,29856.00
2018-05-12T07:13:34.430Z,29376.00
2018-05-12T07:14:34.969Z,29088.00
2018-05-12T07:15:34.446Z,28384.00
2018-05-12T07:16:34.448Z,27136.00
2018-05-12T07:17:34.443Z,28000.00
2018-05-12T07:18:34.453Z,26464.00
2018-05-12T07:19:34.477Z,26304.00
2018-05-12T07:20:34.450Z,29568.00
2018-05-12T07:21:34.487Z,30496.00
2018-05-12T07:22:34.975Z,31616.00
2018-05-12T07:23:34.468Z,32256.00
2018-05-12T07:24:34.976Z,33312.00
2018-05-12T07:25:34.464Z,34496.00
2018-05-12T07:26:34.459Z,35840.00
2018-05-12T07:27:34.463Z,35072.00
2018-05-12T07:28:34.473Z,34816.00
2018-05-12T07:29:34.542Z,33632.00
2018-05-12T07:30:34.473Z,33664.00
2018-05-12T07:31:34.474Z,27488.00
2018-05-12T07:32:34.478Z,21760.00
2018-05-12T07:33:34.485Z,20480.00
2018-05-12T07:34:34.484Z,19360.00
2018-05-12T07:35:34.492Z,18752.00
2018-05-12T07:36:34.493Z,18624.00
2018-05-12T07:37:34.643Z,18656.00
2018-05-12T07:38:34.497Z,18976.00
2018-05-12T07:39:34.525Z,20064.00
2018-05-12T07:40:34.501Z,21632.00
2018-05-12T07:41:34.512Z,27744.00
2018-05-12T07:42:34.533Z,35264.00
2018-05-12T07:43:34.536Z,35936.00
2018-05-12T07:44:34.519Z,36288.00
2018-05-12T07:45:34.621Z,37504.00
2018-05-12T07:46:34.528Z,40896.00
2018-05-12T07:47:34.532Z,43584.00
2018-05-12T07:48:34.538Z,45824.00
2018-05-12T07:49:34.536Z,45408.00
2018-05-12T07:50:34.544Z,43456.00
2018-05-12T07:51:34.556Z,44800.00
2018-05-12T07:52:34.552Z,44960.00
2018-05-12T07:53:34.555Z,44448.00
2018-05-12T07:54:34.558Z,48864.00
2018-05-12T07:55:34.562Z,49472.00
2018-05-12T07:56:34.570Z,50752.00
2018-05-12T07:57:34.571Z,51648.00
2018-05-12T07:58:34.572Z,50656.00
2018-05-12T07:59:34.583Z,51840.00
2018-05-12T08:00:34.585Z,48800.00
2018-05-12T08:01:34.595Z,52800.00
2018-05-12T08:02:34.604Z,51648.00
2018-05-12T08:03:34.660Z,52992.00
2018-05-12T08:04:34.641Z,53088.00
2018-05-12T08:05:34.616Z,53056.00
2018-05-12T08:06:34.617Z,53408.00
2018-05-12T08:07:34.625Z,53312.00
2018-05-12T08:08:34.626Z,53088.00
2018-05-12T08:09:34.635Z,51808.00
2018-05-12T08:10:34.638Z,50496.00
2018-05-12T08:11:34.650Z,49696.00
2018-05-12T08:12:34.652Z,51488.00
2018-05-12T08:13:34.657Z,52512.00
2018-05-12T08:14:34.663Z,52544.00
2018-05-12T08:15:34.669Z,53344.00
2018-05-12T08:16:34.676Z,53152.00
2018-05-12T08:17:34.679Z,51584.00
2018-05-12T08:18:34.687Z,52576.00
2018-05-12T08:19:34.695Z,54144.00
2018-05-12T08:20:34.793Z,53120.00
2018-05-12T08:21:34.707Z,52800.00
2018-05-12T08:22:34.716Z,53792.00
2018-05-12T08:23:34.724Z,55200.00
2018-05-12T08:24:34.729Z,56800.00
2018-05-12T08:25:34.751Z,56992.00
2018-05-12T08:26:34.743Z,56736.00
2018-05-12T08:27:34.753Z,55328.00
2018-05-12T08:28:34.757Z,56128.00
2018-05-12T08:29:34.765Z,55904.00
2018-05-12T08:30:34.770Z,57376.00
2018-05-12T08:31:34.787Z,59904.00
2018-05-12T08:32:34.784Z,61760.00
2018-05-12T08:33:34.799Z,62528.00
2018-05-12T08:34:34.801Z,60320.00
2018-05-12T08:35:34.812Z,59328.00
2018-05-12T08:36:34.817Z,60608.00
2018-05-12T08:37:34.822Z,60800.00
2018-05-12T08:38:34.835Z,61984.00
2018-05-12T08:39:34.840Z,63040.00
2018-05-12T08:40:34.896Z,62528.00
2018-05-12T08:41:34.866Z,39520.00
2018-05-12T08:42:34.870Z,26208.00
2018-05-12T08:43:34.873Z,26432.00
2018-05-12T08:44:34.883Z,26496.00
2018-05-12T08:45:34.891Z,37920.00
2018-05-12T08:46:34.901Z,66112.00
2018-05-12T08:47:34.905Z,64192.00
2018-05-12T08:48:34.913Z,66304.00
2018-05-12T08:49:34.921Z,63744.00
2018-05-12T08:50:34.928Z,64288.00
2018-05-12T08:51:34.940Z,66528.00
2018-05-12T08:52:34.946Z,65920.00
2018-05-12T08:53:34.957Z,65280.00
2018-05-12T08:54:34.971Z,62240.00
2018-05-12T08:55:34.976Z,64032.00
2018-05-12T08:56:34.983Z,61664.00
2018-05-12T08:57:34.993Z,58272.00
2018-05-12T08:58:34.999Z,61440.00
2018-05-12T08:59:35.011Z,61408.00
2018-05-12T09:00:35.020Z,62752.00
2018-05-12T09:01:35.027Z,65664.00
2018-05-12T09:02:35.041Z,68320.00
2018-05-12T09:03:35.056Z,71168.00
2018-05-12T09:04:35.052Z,69344.00
2018-05-12T09:05:35.059Z,67264.00
2018-05-12T09:06:35.070Z,68448.00
2018-05-12T09:07:35.080Z,70016.00
2018-05-12T09:08:35.083Z,71424.00
2018-05-12T09:09:35.095Z,71680.00
2018-05-12T09:10:35.101Z,70304.00
2018-05-12T09:11:35.110Z,67712.00
2018-05-12T09:12:35.123Z,69920.00
2018-05-12T09:13:35.155Z,70208.00
2018-05-12T09:14:35.142Z,69696.00
2018-05-12T09:15:35.150Z,66880.00
2018-05-12T09:16:35.157Z,70176.00
2018-05-12T09:17:35.165Z,71904.00
2018-05-12T09:18:35.176Z,69824.00
2018-05-12T09:19:35.195Z,66432.00
2018-05-12T09:20:35.196Z,56000.00
2018-05-12T09:21:35.206Z,60640.00
2018-05-12T09:22:35.230Z,72672.00
2018-05-12T09:23:35.333Z,71264.00
2018-05-12T09:24:35.233Z,66688.00
2018-05-12T09:25:35.310Z,62240.00
2018-05-12T09:26:35.253Z,63072.00
2018-05-12T09:27:35.264Z,67840.00
2018-05-12T09:28:35.267Z,69728.00
2018-05-12T09:29:35.277Z,62976.00
2018-05-12T09:30:35.291Z,60896.00
2018-05-12T09:31:35.305Z,71200.00
2018-05-12T09:32:35.301Z,76032.00
2018-05-12T09:33:35.316Z,73728.00
2018-05-12T09:34:35.317Z,74208.00
2018-05-12T09:35:35.343Z,73536.00
2018-05-12T09:36:35.337Z,75520.00
2018-05-12T09:37:35.351Z,75008.00
2018-05-12T09:38:35.357Z,76576.00
2018-05-12T09:39:35.366Z,76384.00
2018-05-12T09:40:35.376Z,67456.00
2018-05-12T09:41:35.383Z,69792.00
2018-05-12T09:42:35.434Z,66816.00
2018-05-12T09:43:35.405Z,50432.00
2018-05-12T09:44:35.425Z,81792.00
2018-05-12T09:45:35.423Z,85728.00
2018-05-12T09:46:35.532Z,88224.00
2018-05-12T09:47:35.555Z,87520.00
2018-05-12T09:48:35.462Z,90144.00
2018-05-12T09:49:35.517Z,86784.00
2018-05-12T09:50:35.465Z,89056.00
2018-05-12T09:51:35.472Z,83008.00
2018-05-12T09:52:35.486Z,89952.00
2018-05-12T09:53:35.490Z,92608.00
2018-05-12T09:54:35.500Z,33408.00
2018-05-12T09:55:35.509Z,30240.00
2018-05-12T09:56:35.516Z,81120.00
2018-05-12T09:57:35.527Z,20864.00
2018-05-12T09:58:35.533Z,18656.00
2018-05-12T09:59:35.568Z,22304.00
2018-05-12T10:00:35.552Z,68288.00
2018-05-12T10:01:35.559Z,70688.00
2018-05-12T10:02:35.575Z,77888.00
2018-05-12T10:03:35.578Z,53888.00
2018-05-12T10:04:35.585Z,81504.00
2018-05-12T10:05:35.596Z,34848.00
2018-05-12T10:06:35.598Z,84320.00
2018-05-12T10:07:35.611Z,83040.00
2018-05-12T10:08:35.625Z,82848.00
2018-05-12T10:09:35.687Z,64960.00
2018-05-12T10:10:35.640Z,22432.00
2018-05-12T10:11:35.644Z,17216.00
2018-05-12T10:12:35.647Z,17072.00
2018-05-12T10:13:35.656Z,18016.00
2018-05-12T10:14:35.671Z,20384.00
2018-05-12T10:15:35.702Z,19328.00
2018-05-12T10:16:35.688Z,19712.00
2018-05-12T10:17:35.689Z,20192.00
2018-05-12T10:18:35.699Z,20896.00
2018-05-12T10:19:35.719Z,22336.00
2018-05-12T10:20:35.711Z,60736.00
2018-05-12T10:21:35.714Z,88032.00
2018-05-12T10:22:35.740Z,89760.00
2018-05-12T10:23:35.732Z,96448.00
2018-05-12T10:24:35.736Z,90624.00
2018-05-12T10:25:35.744Z,91264.00
2018-05-12T10:26:35.747Z,87456.00
2018-05-12T10:27:35.759Z,85600.00
2018-05-12T10:28:35.765Z,88096.00
2018-05-12T10:29:35.773Z,90080.00
2018-05-12T10:30:35.779Z,89600.00
2018-05-12T10:31:35.785Z,91264.00
2018-05-12T10:32:35.805Z,83200.00
2018-05-12T10:33:35.798Z,78560.00
2018-05-12T10:34:35.806Z,84672.00
2018-05-12T10:35:35.815Z,81408.00
2018-05-12T10:36:35.828Z,80064.00
2018-05-12T10:37:35.831Z,76736.00
2018-05-12T10:38:35.838Z,59360.00
2018-05-12T10:39:36.622Z,30592.00
2018-05-12T10:40:35.860Z,60800.00
2018-05-12T10:41:35.867Z,78912.00
2018-05-12T10:42:35.930Z,82240.00
2018-05-12T10:43:35.942Z,84512.00
2018-05-12T10:44:35.889Z,85152.00
2018-05-12T10:45:35.897Z,86144.00
2018-05-12T10:46:35.908Z,86048.00
2018-05-12T10:47:35.915Z,83424.00
2018-05-12T10:48:35.923Z,74400.00
2018-05-12T10:49:35.934Z,73728.00
2018-05-12T10:50:35.944Z,76192.00
2018-05-12T10:51:35.953Z,76448.00
2018-05-12T10:52:35.960Z,75968.00
2018-05-12T10:53:35.963Z,78208.00
2018-05-12T10:54:35.976Z,72960.00
2018-05-12T10:55:35.991Z,76736.00
2018-05-12T10:56:36.011Z,76416.00
2018-05-12T10:57:36.012Z,80000.00
2018-05-12T10:58:36.010Z,84960.00
2018-05-12T10:59:36.020Z,82528.00
2018-05-12T11:00:36.034Z,84672.00
2018-05-12T11:01:36.033Z,86176.00
2018-05-12T11:02:36.042Z,90496.00
2018-05-12T11:03:36.066Z,90784.00
2018-05-12T11:04:36.064Z,82880.00
2018-05-12T11:05:36.065Z,83360.00
2018-05-12T11:06:36.076Z,81280.00
2018-05-12T11:07:36.087Z,75040.00
2018-05-12T11:08:36.090Z,75968.00
2018-05-12T11:09:36.154Z,74592.00
2018-05-12T11:10:36.115Z,73056.00
2018-05-12T11:11:36.123Z,70144.00
2018-05-12T11:12:36.127Z,68928.00
2018-05-12T11:13:36.133Z,69664.00
2018-05-12T11:14:36.140Z,69280.00
2018-05-12T11:15:36.151Z,71104.00
2018-05-12T11:16:36.162Z,74816.00
2018-05-12T11:17:36.169Z,73824.00
2018-05-12T11:18:36.183Z,75616.00
2018-05-12T11:19:36.188Z,73792.00
2018-05-12T11:20:36.192Z,67936.00
2018-05-12T11:21:36.217Z,68544.00
2018-05-12T11:22:36.223Z,66208.00
2018-05-12T11:23:36.215Z,67936.00
2018-05-12T11:24:36.227Z,66944.00
2018-05-12T11:25:36.233Z,69440.00
2018-05-12T11:26:36.296Z,70144.00
2018-05-12T11:27:36.256Z,71776.00
2018-05-12T11:28:36.267Z,73728.00
2018-05-12T11:29:36.273Z,77280.00
2018-05-12T11:30:36.277Z,80256.00
2018-05-12T11:31:36.282Z,66624.00
2018-05-12T11:32:36.295Z,72800.00
2018-05-12T11:33:36.295Z,73056.00
2018-05-12T11:34:36.314Z,72864.00
2018-05-12T11:35:36.310Z,73344.00
2018-05-12T11:36:36.317Z,78624.00
2018-05-12T11:37:36.324Z,80128.00
2018-05-12T11:38:36.365Z,36352.00
2018-05-12T11:39:36.358Z,29344.00
2018-05-12T11:40:36.353Z,29216.00
2018-05-12T11:41:36.358Z,54240.00
2018-05-12T11:42:36.364Z,76192.00
2018-05-12T11:43:36.380Z,80032.00
2018-05-12T11:44:36.530Z,76320.00
2018-05-12T11:45:36.391Z,65824.00
2018-05-12T11:46:36.406Z,30176.00
2018-05-12T11:47:36.400Z,62976.00
2018-05-12T11:48:36.408Z,76736.00
2018-05-12T11:49:36.423Z,82688.00
2018-05-12T11:50:36.441Z,80384.00
2018-05-12T11:51:36.439Z,81312.00
2018-05-12T11:52:36.446Z,76288.00
2018-05-12T11:53:36.454Z,73376.00
2018-05-12T11:54:36.455Z,81696.00
2018-05-12T11:55:36.474Z,82048.00
2018-05-12T11:56:36.483Z,81056.00
2018-05-12T11:57:36.478Z,82528.00
2018-05-12T11:58:36.488Z,81216.00
2018-05-12T11:59:36.501Z,83104.00
2018-05-12T12:00:36.507Z,79488.00
2018-05-12T12:01:36.514Z,80896.00
2018-05-12T12:02:36.585Z,82208.00
2018-05-12T12:03:36.556Z,81920.00
2018-05-12T12:04:36.535Z,86144.00
2018-05-12T12:05:36.537Z,83168.00
2018-05-12T12:06:36.543Z,83008.00
2018-05-12T12:07:36.552Z,80512.00
2018-05-12T12:08:36.561Z,73984.00
2018-05-12T12:09:36.581Z,63104.00
2018-05-12T12:10:36.574Z,65952.00
2018-05-12T12:11:36.599Z,73728.00
2018-05-12T12:12:36.592Z,77344.00
2018-05-12T12:13:36.590Z,76608.00